Time;durP1;ratioP1;P1;durP2;ratioP2;P2;SDS_P1;SDS_P2;PMS_P1;PMS_P2;Temp;Humidity;BMP_temperature;BMP_pressure;BME280_temperature;BME280_humidity;BME280_pressure;Samples;Min_cycle;Max_cycle;Signal;HPM_P1;HPM_P2
2022/03/15 00:01:23;;;;;;;10.02;6.10;;;;;;;;;;5069709;28;20233;-19
2022/03/15 00:03:51;;;;;;;10.25;5.72;;;;;;;;;;5067268;28;20329;-19
2022/03/15 00:06:18;;;;;;;8.80;5.63;;;;;;;;;;5072217;28;20292;-19
2022/03/15 00:08:45;;;;;;;9.68;5.90;;;;;;;;;;5072542;28;21039;-19
2022/03/15 00:11:12;;;;;;;11.88;6.60;;;;;;;;;;5071954;28;20926;-19
2022/03/15 00:13:39;;;;;;;11.30;6.20;;;;;;;;;;5072739;28;20592;-19
2022/03/15 00:16:07;;;;;;;9.05;6.03;;;;;;;;;;5072046;28;20317;-19
2022/03/15 00:18:34;;;;;;;13.23;6.32;;;;;;;;;;5072532;28;20242;-19
2022/03/15 00:21:02;;;;;;;16.65;6.38;;;;;;;;;;5071942;28;20241;-19
2022/03/15 00:23:29;;;;;;;9.75;6.22;;;;;;;;;;5072355;28;20241;-19
2022/03/15 00:25:56;;;;;;;12.25;6.15;;;;;;;;;;5067755;28;20230;-19
2022/03/15 00:28:24;;;;;;;16.08;6.18;;;;;;;;;;5067266;28;21317;-20
2022/03/15 00:30:52;;;;;;;20.05;6.15;;;;;;;;;;5058534;28;20240;-19
2022/03/15 00:33:19;;;;;;;10.07;5.43;;;;;;;;;;5072704;28;20257;-19
2022/03/15 00:35:47;;;;;;;10.25;5.88;;;;;;;;;;5072773;28;20225;-19
2022/03/15 00:38:14;;;;;;;11.90;6.32;;;;;;;;;;5072430;28;20309;-19
2022/03/15 00:40:41;;;;;;;7.85;5.40;;;;;;;;;;5072746;28;20217;-19
2022/03/15 00:43:08;;;;;;;14.32;5.95;;;;;;;;;;5072513;28;20225;-19
2022/03/15 00:45:35;;;;;;;13.45;5.75;;;;;;;;;;5072310;28;21045;-19
2022/03/15 00:48:03;;;;;;;8.68;5.20;;;;;;;;;;5071437;28;20226;-19
2022/03/15 00:50:32;;;;;;;12.07;5.10;;;;;;;;;;5069768;28;21039;-19
2022/03/15 00:53:00;;;;;;;10.85;5.00;;;;;;;;;;5052271;28;20229;-19
2022/03/15 00:55:28;;;;;;;7.20;5.20;;;;;;;;;;5051528;28;20983;-19
2022/03/15 00:57:55;;;;;;;12.10;5.30;;;;;;;;;;5052098;28;20234;-19
2022/03/15 01:00:22;;;;;;;9.88;5.93;;;;;;;;;;5070554;28;20233;-19
2022/03/15 01:02:49;;;;;;;8.82;5.55;;;;;;;;;;5072201;28;20706;-19
2022/03/15 01:05:17;;;;;;;8.98;5.20;;;;;;;;;;5072343;28;20688;-19
2022/03/15 01:07:44;;;;;;;9.32;5.55;;;;;;;;;;5071779;28;20230;-19
2022/03/15 01:10:11;;;;;;;8.32;5.60;;;;;;;;;;5070428;28;20700;-19
2022/03/15 01:12:38;;;;;;;5.88;4.72;;;;;;;;;;5069258;28;21016;-19
2022/03/15 01:15:06;;;;;;;9.23;5.90;;;;;;;;;;5059705;28;20256;-19
2022/03/15 01:17:34;;;;;;;9.35;5.60;;;;;;;;;;5070900;28;20225;-19
2022/03/15 01:20:01;;;;;;;9.48;5.75;;;;;;;;;;5070258;28;20700;-19
2022/03/15 01:22:28;;;;;;;8.23;5.43;;;;;;;;;;5077724;28;20248;-19
2022/03/15 01:24:55;;;;;;;6.82;5.57;;;;;;;;;;5071479;28;20233;-19
2022/03/15 01:27:22;;;;;;;9.35;5.68;;;;;;;;;;5071426;28;20213;-19
2022/03/15 01:29:49;;;;;;;9.43;6.13;;;;;;;;;;5072087;28;20213;-19
2022/03/15 01:32:16;;;;;;;7.68;5.18;;;;;;;;;;5071735;28;20230;-19
2022/03/15 01:34:43;;;;;;;8.63;5.40;;;;;;;;;;5071203;28;20233;-19
2022/03/15 01:37:10;;;;;;;6.13;5.18;;;;;;;;;;5070899;28;20237;-19
2022/03/15 01:39:37;;;;;;;8.43;5.97;;;;;;;;;;5071659;28;20228;-19
2022/03/15 01:42:04;;;;;;;6.88;5.10;;;;;;;;;;5071577;28;20232;-19
2022/03/15 01:44:33;;;;;;;7.97;5.13;;;;;;;;;;5069858;28;20747;-19
2022/03/15 01:47:00;;;;;;;8.63;5.13;;;;;;;;;;5070319;28;20232;-19
2022/03/15 01:49:27;;;;;;;9.00;5.85;;;;;;;;;;5071553;28;20229;-19
2022/03/15 01:51:55;;;;;;;9.68;6.00;;;;;;;;;;5071380;28;20305;-19
2022/03/15 01:54:22;;;;;;;6.70;4.93;;;;;;;;;;5072031;28;20236;-19
2022/03/15 01:56:49;;;;;;;8.48;5.40;;;;;;;;;;5071152;28;20225;-19
2022/03/15 01:59:16;;;;;;;7.30;5.47;;;;;;;;;;5071761;28;20240;-19
2022/03/15 02:01:43;;;;;;;7.05;5.88;;;;;;;;;;5071373;28;20257;-19
2022/03/15 02:04:11;;;;;;;6.63;5.30;;;;;;;;;;5071120;28;20245;-19
2022/03/15 02:06:38;;;;;;;7.00;5.55;;;;;;;;;;5063381;28;20226;-19
2022/03/15 02:09:05;;;;;;;5.97;5.35;;;;;;;;;;5055262;28;20833;-19
2022/03/15 02:11:34;;;;;;;8.60;5.50;;;;;;;;;;5051384;28;20225;-19
2022/03/15 02:14:01;;;;;;;7.40;5.10;;;;;;;;;;5051233;28;20241;-19
2022/03/15 02:16:28;;;;;;;7.00;4.90;;;;;;;;;;5063052;28;20213;-19
2022/03/15 02:18:58;;;;;;;6.95;5.28;;;;;;;;;;5071662;28;20581;-19
2022/03/15 02:21:25;;;;;;;9.38;5.03;;;;;;;;;;5074563;28;20241;-19
2022/03/15 02:23:52;;;;;;;7.60;5.30;;;;;;;;;;5074869;28;20252;-19
2022/03/15 02:26:19;;;;;;;7.85;5.20;;;;;;;;;;5074901;28;20928;-19
2022/03/15 02:28:46;;;;;;;8.40;5.32;;;;;;;;;;5074776;28;20985;-19
2022/03/15 02:31:13;;;;;;;7.63;5.45;;;;;;;;;;5064629;28;20230;-19
2022/03/15 02:33:40;;;;;;;6.88;5.63;;;;;;;;;;5054133;28;20234;-19
2022/03/15 02:36:07;;;;;;;7.75;5.40;;;;;;;;;;5059807;28;20225;-19
2022/03/15 02:38:35;;;;;;;6.70;5.40;;;;;;;;;;5074664;28;21115;-19
2022/03/15 02:41:03;;;;;;;7.70;5.32;;;;;;;;;;5080746;28;20231;-19
2022/03/15 02:43:30;;;;;;;7.30;5.65;;;;;;;;;;5094831;28;20233;-19
2022/03/15 02:45:57;;;;;;;6.95;5.53;;;;;;;;;;5087302;28;20723;-19
2022/03/15 02:48:24;;;;;;;5.68;5.00;;;;;;;;;;5074423;28;20975;-19
2022/03/15 02:50:51;;;;;;;5.72;5.15;;;;;;;;;;5074343;28;20692;-19
2022/03/15 02:53:18;;;;;;;7.88;5.55;;;;;;;;;;5073594;28;20240;-19
2022/03/15 02:55:46;;;;;;;5.85;5.25;;;;;;;;;;5074553;28;20297;-19
2022/03/15 02:58:14;;;;;;;5.97;5.20;;;;;;;;;;5073757;28;21099;-19
2022/03/15 03:00:41;;;;;;;8.55;5.05;;;;;;;;;;5068943;28;20230;-19
2022/03/15 03:03:08;;;;;;;7.40;5.50;;;;;;;;;;5062054;28;20234;-19
2022/03/15 03:05:35;;;;;;;7.28;5.15;;;;;;;;;;5073457;28;20288;-19
2022/03/15 03:08:05;;;;;;;8.93;5.30;;;;;;;;;;5074072;28;20232;-19
2022/03/15 03:10:32;;;;;;;6.38;5.18;;;;;;;;;;5074171;28;20217;-19
2022/03/15 03:12:59;;;;;;;6.07;4.97;;;;;;;;;;5073909;28;20220;-19
2022/03/15 03:15:26;;;;;;;6.60;5.35;;;;;;;;;;5069327;28;20769;-19
2022/03/15 03:17:53;;;;;;;5.35;4.85;;;;;;;;;;5072128;28;20967;-19
2022/03/15 03:22:58;;;;;;;7.35;5.55;;;;;;;;;;5010200;28;20245;-19
2022/03/15 03:25:26;;;;;;;6.65;4.93;;;;;;;;;;5011881;28;20246;-18
2022/03/15 03:27:53;;;;;;;8.50;5.50;;;;;;;;;;5012930;28;20231;-18
2022/03/15 03:30:20;;;;;;;7.38;5.07;;;;;;;;;;5014298;28;20238;-19
2022/03/15 03:32:47;;;;;;;6.70;5.10;;;;;;;;;;5014518;28;21076;-18
2022/03/15 03:35:14;;;;;;;8.38;5.18;;;;;;;;;;5013934;28;21016;-18
2022/03/15 03:37:41;;;;;;;8.55;5.50;;;;;;;;;;5014649;28;20220;-18
2022/03/15 03:40:08;;;;;;;6.78;5.20;;;;;;;;;;5014477;28;20259;-18
2022/03/15 03:42:35;;;;;;;6.40;4.95;;;;;;;;;;5014026;28;20224;-18
2022/03/15 03:45:02;;;;;;;5.97;5.32;;;;;;;;;;5013525;28;20226;-18
2022/03/15 03:47:29;;;;;;;7.05;5.10;;;;;;;;;;5004314;28;20242;-18
2022/03/15 03:49:56;;;;;;;7.18;5.30;;;;;;;;;;5013555;28;20698;-18
2022/03/15 03:52:23;;;;;;;6.10;5.47;;;;;;;;;;5013616;28;20676;-18
2022/03/15 03:54:50;;;;;;;6.85;5.93;;;;;;;;;;5013497;28;20250;-18
2022/03/15 03:57:17;;;;;;;8.40;5.68;;;;;;;;;;5012732;28;20313;-18
2022/03/15 03:59:44;;;;;;;6.50;5.60;;;;;;;;;;5013110;28;20227;-18
2022/03/15 04:02:13;;;;;;;7.40;4.97;;;;;;;;;;4996154;28;20228;-18
2022/03/15 04:04:40;;;;;;;6.78;5.15;;;;;;;;;;4993910;28;20269;-19
2022/03/15 04:07:11;;;;;;;6.38;5.13;;;;;;;;;;4993684;28;20231;-18
2022/03/15 04:09:38;;;;;;;6.20;5.13;;;;;;;;;;5005314;28;20232;-18
2022/03/15 04:12:05;;;;;;;6.40;5.13;;;;;;;;;;5012892;28;20239;-18
2022/03/15 04:14:34;;;;;;;8.05;5.18;;;;;;;;;;5013079;28;21221;-18
2022/03/15 04:17:01;;;;;;;6.20;5.45;;;;;;;;;;5013035;28;21004;-18
2022/03/15 04:19:28;;;;;;;6.47;5.50;;;;;;;;;;5012564;28;21018;-18
2022/03/15 04:21:56;;;;;;;7.35;5.40;;;;;;;;;;5012681;28;20247;-18
2022/03/15 04:24:23;;;;;;;5.85;5.10;;;;;;;;;;5013002;28;20228;-18
2022/03/15 04:26:50;;;;;;;6.82;5.30;;;;;;;;;;5013136;28;20231;-18
2022/03/15 04:29:17;;;;;;;7.28;5.20;;;;;;;;;;5012843;28;20694;-18
2022/03/15 04:31:44;;;;;;;6.38;5.22;;;;;;;;;;5014508;28;20235;-18
2022/03/15 04:34:11;;;;;;;7.30;5.68;;;;;;;;;;5012763;28;20970;-18
2022/03/15 04:36:40;;;;;;;7.25;5.68;;;;;;;;;;5012290;28;20227;-18
2022/03/15 04:39:07;;;;;;;7.00;5.47;;;;;;;;;;5012858;28;20227;-18
2022/03/15 04:41:33;;;;;;;7.60;5.53;;;;;;;;;;5011329;28;20231;-18
2022/03/15 04:44:00;;;;;;;6.78;5.18;;;;;;;;;;5012688;28;20996;-19
2022/03/15 04:46:27;;;;;;;8.05;5.78;;;;;;;;;;5012462;28;20234;-18
2022/03/15 04:48:56;;;;;;;7.00;5.10;;;;;;;;;;5012681;28;20942;-18
2022/03/15 04:51:24;;;;;;;5.32;4.82;;;;;;;;;;5012469;28;20235;-18
2022/03/15 04:53:51;;;;;;;6.03;5.43;;;;;;;;;;5012123;28;20232;-18
2022/03/15 04:56:18;;;;;;;9.02;5.20;;;;;;;;;;5012496;28;20211;-18
2022/03/15 04:58:45;;;;;;;6.50;5.18;;;;;;;;;;5012464;28;20227;-18
2022/03/15 05:01:12;;;;;;;6.55;5.10;;;;;;;;;;5022897;28;20245;-18
2022/03/15 05:03:39;;;;;;;6.25;4.97;;;;;;;;;;5013853;28;20227;-18
2022/03/15 05:06:06;;;;;;;5.78;5.07;;;;;;;;;;5012283;28;20235;-18
2022/03/15 05:08:33;;;;;;;6.30;5.15;;;;;;;;;;5012526;28;20216;-18
2022/03/15 05:11:06;;;;;;;6.13;4.68;;;;;;;;;;5012439;28;20231;-18
2022/03/15 05:13:35;;;;;;;6.95;5.38;;;;;;;;;;5012158;28;20231;-18
2022/03/15 05:16:02;;;;;;;5.40;4.68;;;;;;;;;;5011588;28;20231;-18
2022/03/15 05:18:29;;;;;;;7.75;5.30;;;;;;;;;;5012275;28;20230;-18
2022/03/15 05:20:56;;;;;;;6.00;5.35;;;;;;;;;;5011276;28;20239;-19
2022/03/15 05:23:23;;;;;;;7.75;5.50;;;;;;;;;;5012193;28;20227;-19
2022/03/15 05:25:49;;;;;;;6.20;5.45;;;;;;;;;;5011990;28;20269;-18
2022/03/15 05:28:16;;;;;;;5.80;5.13;;;;;;;;;;5012055;28;20754;-18
2022/03/15 05:30:43;;;;;;;6.32;5.30;;;;;;;;;;5012019;28;20235;-18
2022/03/15 05:33:10;;;;;;;7.93;5.15;;;;;;;;;;5012413;28;20734;-18
2022/03/15 05:35:37;;;;;;;6.30;5.18;;;;;;;;;;5031736;28;20974;-18
2022/03/15 05:38:04;;;;;;;5.78;5.18;;;;;;;;;;5014988;28;20231;-18
2022/03/15 05:40:32;;;;;;;6.63;5.00;;;;;;;;;;5012149;28;20224;-18
2022/03/15 05:42:59;;;;;;;5.50;4.65;;;;;;;;;;5011977;28;20224;-18
2022/03/15 05:45:26;;;;;;;5.35;4.63;;;;;;;;;;5011988;28;20227;-18
2022/03/15 05:47:53;;;;;;;6.00;4.80;;;;;;;;;;5011306;28;20707;-18
2022/03/15 05:50:20;;;;;;;5.63;4.43;;;;;;;;;;5011417;28;20262;-19
2022/03/15 05:52:47;;;;;;;5.40;4.50;;;;;;;;;;5014058;28;20227;-18
2022/03/15 05:55:14;;;;;;;6.35;4.80;;;;;;;;;;5019440;28;20238;-18
2022/03/15 05:57:42;;;;;;;4.45;4.00;;;;;;;;;;5016864;28;20219;-18
2022/03/15 06:00:10;;;;;;;6.15;4.60;;;;;;;;;;5002611;28;20239;-18
2022/03/15 06:02:37;;;;;;;5.82;3.97;;;;;;;;;;5018367;28;20227;-20
2022/03/15 06:05:05;;;;;;;5.47;4.43;;;;;;;;;;5018294;28;20266;-18
2022/03/15 06:07:31;;;;;;;4.85;4.00;;;;;;;;;;5018355;28;20233;-18
2022/03/15 06:09:58;;;;;;;4.95;4.45;;;;;;;;;;5017506;28;20718;-18
2022/03/15 06:12:25;;;;;;;6.28;3.92;;;;;;;;;;5018153;28;20963;-18
2022/03/15 06:14:53;;;;;;;7.30;3.95;;;;;;;;;;5017577;28;20233;-18
2022/03/15 06:17:20;;;;;;;5.80;3.83;;;;;;;;;;5017995;28;20219;-19
2022/03/15 06:19:47;;;;;;;4.75;3.53;;;;;;;;;;5018409;28;20254;-19
2022/03/15 06:22:14;;;;;;;4.68;3.67;;;;;;;;;;5017400;28;20238;-18
2022/03/15 06:24:41;;;;;;;3.60;3.15;;;;;;;;;;5018403;28;20227;-19
2022/03/15 06:27:08;;;;;;;4.82;3.40;;;;;;;;;;5018109;28;20231;-18
2022/03/15 06:29:35;;;;;;;4.97;3.67;;;;;;;;;;5018493;28;20238;-18
2022/03/15 06:32:02;;;;;;;5.38;3.67;;;;;;;;;;5017733;28;20220;-19
2022/03/15 06:34:49;;;;;;;4.10;3.15;;;;;;;;;;5017617;28;20311;-18
2022/03/15 06:37:16;;;;;;;6.28;3.58;;;;;;;;;;5017749;28;20808;-19
2022/03/15 06:39:44;;;;;;;3.90;3.40;;;;;;;;;;5017436;28;20307;-19
2022/03/15 06:42:11;;;;;;;4.28;3.20;;;;;;;;;;5017191;28;20239;-19
2022/03/15 06:44:42;;;;;;;4.43;3.20;;;;;;;;;;5017792;28;20827;-19
2022/03/15 06:47:09;;;;;;;4.70;3.22;;;;;;;;;;5016035;28;20231;-18
2022/03/15 06:49:36;;;;;;;4.93;3.20;;;;;;;;;;5018738;28;20242;-19
2022/03/15 06:52:03;;;;;;;4.90;3.08;;;;;;;;;;5016416;28;20223;-19
2022/03/15 06:54:30;;;;;;;4.30;3.10;;;;;;;;;;5015277;28;20234;-19
2022/03/15 06:56:57;;;;;;;5.95;3.58;;;;;;;;;;5011077;28;20258;-18
2022/03/15 06:59:24;;;;;;;6.20;3.03;;;;;;;;;;5017757;28;20306;-19
2022/03/15 07:01:59;;;;;;;3.35;3.05;;;;;;;;;;5031506;28;20270;-18
2022/03/15 07:04:27;;;;;;;4.60;3.20;;;;;;;;;;5014386;28;20284;-19
2022/03/15 07:06:54;;;;;;;4.35;3.17;;;;;;;;;;5014164;28;20234;-19
2022/03/15 07:09:20;;;;;;;4.40;3.40;;;;;;;;;;5014255;28;20238;-19
2022/03/15 07:11:47;;;;;;;6.55;3.00;;;;;;;;;;5014263;28;20216;-19
2022/03/15 07:14:14;;;;;;;4.15;2.80;;;;;;;;;;5014301;28;20219;-19
2022/03/15 07:16:41;;;;;;;3.95;3.35;;;;;;;;;;5013531;28;20236;-19
2022/03/15 07:19:08;;;;;;;4.28;3.53;;;;;;;;;;5023622;28;20231;-19
2022/03/15 07:21:35;;;;;;;5.50;3.15;;;;;;;;;;5033603;28;20251;-19
2022/03/15 07:24:02;;;;;;;5.13;3.75;;;;;;;;;;5033552;28;20234;-19
2022/03/15 07:26:29;;;;;;;4.63;2.90;;;;;;;;;;5029523;28;20247;-19
2022/03/15 07:28:57;;;;;;;4.63;3.45;;;;;;;;;;5013288;28;20231;-19
2022/03/15 07:31:24;;;;;;;10.35;3.53;;;;;;;;;;5009987;28;20301;-19
2022/03/15 07:33:51;;;;;;;14.63;4.03;;;;;;;;;;5004645;28;20310;-18
2022/03/15 07:36:19;;;;;;;8.82;4.13;;;;;;;;;;5004566;28;20227;-19
2022/03/15 07:38:46;;;;;;;10.93;4.25;;;;;;;;;;5007256;28;20239;-18
2022/03/15 07:41:13;;;;;;;11.60;4.57;;;;;;;;;;5005610;28;20345;-19
2022/03/15 07:43:40;;;;;;;17.70;4.55;;;;;;;;;;5002750;28;20227;-18
2022/03/15 07:46:07;;;;;;;9.73;4.20;;;;;;;;;;5004146;28;21007;-19
2022/03/15 07:48:34;;;;;;;9.35;4.25;;;;;;;;;;5009092;28;20714;-18
2022/03/15 07:51:01;;;;;;;11.50;4.18;;;;;;;;;;5005293;28;20232;-18
2022/03/15 07:53:28;;;;;;;14.30;4.65;;;;;;;;;;5001614;28;20236;-18
2022/03/15 07:55:56;;;;;;;8.93;3.65;;;;;;;;;;5005380;28;20228;-18
2022/03/15 07:58:23;;;;;;;10.15;3.92;;;;;;;;;;5004968;28;20726;-19
2022/03/15 08:00:54;;;;;;;7.90;4.07;;;;;;;;;;5009768;28;20234;-18
2022/03/15 08:03:22;;;;;;;8.35;3.95;;;;;;;;;;5012479;28;20234;-18
2022/03/15 08:05:49;;;;;;;7.88;4.05;;;;;;;;;;5004903;28;20240;-19
2022/03/15 08:08:16;;;;;;;5.55;3.47;;;;;;;;;;5006959;28;20232;-19
2022/03/15 08:10:43;;;;;;;10.95;3.90;;;;;;;;;;5011985;28;20617;-19
2022/03/15 08:13:10;;;;;;;11.50;4.10;;;;;;;;;;5012284;28;21075;-18
2022/03/15 08:15:37;;;;;;;11.27;4.97;;;;;;;;;;5009334;28;20713;-19
2022/03/15 08:18:05;;;;;;;8.45;4.00;;;;;;;;;;5003367;28;20239;-18
2022/03/15 08:20:32;;;;;;;5.10;3.75;;;;;;;;;;5004147;28;20234;-20
2022/03/15 08:23:00;;;;;;;6.40;3.78;;;;;;;;;;5006048;28;20711;-21
2022/03/15 08:25:27;;;;;;;9.15;4.25;;;;;;;;;;5005541;28;20318;-20
2022/03/15 08:27:55;;;;;;;8.77;3.60;;;;;;;;;;5008296;28;21117;-20
2022/03/15 08:30:22;;;;;;;8.32;3.85;;;;;;;;;;5008187;28;20992;-19
2022/03/15 08:32:49;;;;;;;9.95;3.88;;;;;;;;;;5010379;28;20617;-19
2022/03/15 08:35:16;;;;;;;11.93;3.97;;;;;;;;;;5009950;28;20232;-19
2022/03/15 08:37:43;;;;;;;25.52;5.25;;;;;;;;;;5011845;28;20241;-19
2022/03/15 08:40:11;;;;;;;27.90;5.35;;;;;;;;;;5006972;28;20235;-20
2022/03/15 08:42:38;;;;;;;29.00;5.40;;;;;;;;;;5003323;28;21238;-20
2022/03/15 08:45:05;;;;;;;21.00;5.22;;;;;;;;;;5011842;28;20238;-20
2022/03/15 08:47:33;;;;;;;15.40;4.88;;;;;;;;;;5012491;28;20728;-20
2022/03/15 08:50:00;;;;;;;12.50;4.75;;;;;;;;;;5012677;28;20706;-20
2022/03/15 08:52:27;;;;;;;17.92;5.28;;;;;;;;;;5013145;28;20234;-20
2022/03/15 08:54:54;;;;;;;11.88;5.32;;;;;;;;;;5011064;28;20335;-20
2022/03/15 08:57:25;;;;;;;9.88;5.07;;;;;;;;;;5012844;28;20683;-20
2022/03/15 08:59:52;;;;;;;10.90;4.95;;;;;;;;;;5011759;28;20449;-20
2022/03/15 09:02:20;;;;;;;11.57;3.97;;;;;;;;;;5012231;28;20243;-20
2022/03/15 09:04:47;;;;;;;13.65;5.20;;;;;;;;;;5011389;28;20928;-20
2022/03/15 09:07:14;;;;;;;11.55;4.40;;;;;;;;;;5010851;28;20316;-20
2022/03/15 09:09:41;;;;;;;12.32;4.80;;;;;;;;;;5023847;28;20228;-20
2022/03/15 09:12:09;;;;;;;12.20;4.43;;;;;;;;;;5007360;28;20437;-20
2022/03/15 09:14:36;;;;;;;9.57;4.78;;;;;;;;;;5007545;28;20418;-20
2022/03/15 09:17:03;;;;;;;12.18;4.10;;;;;;;;;;5007962;28;20241;-21
2022/03/15 09:19:30;;;;;;;8.77;3.92;;;;;;;;;;5011339;28;20230;-21
2022/03/15 09:22:02;;;;;;;19.90;4.20;;;;;;;;;;5002908;28;20239;-21
2022/03/15 09:24:30;;;;;;;8.27;3.85;;;;;;;;;;5014721;28;20238;-20
2022/03/15 09:26:57;;;;;;;14.60;4.10;;;;;;;;;;5031184;28;20252;-21
2022/03/15 09:29:24;;;;;;;14.73;4.22;;;;;;;;;;5012154;28;20234;-20
2022/03/15 09:31:51;;;;;;;15.07;4.22;;;;;;;;;;5011418;28;20235;-21
2022/03/15 09:34:21;;;;;;;13.47;4.40;;;;;;;;;;5011066;28;20414;-21
2022/03/15 09:36:48;;;;;;;15.23;4.57;;;;;;;;;;5010911;28;20939;-21
2022/03/15 09:39:15;;;;;;;12.52;4.05;;;;;;;;;;5007177;28;20243;-21
2022/03/15 09:41:42;;;;;;;13.73;4.15;;;;;;;;;;5008304;28;20257;-20
2022/03/15 09:44:09;;;;;;;7.72;4.47;;;;;;;;;;5010222;28;20231;-21
2022/03/15 09:46:36;;;;;;;12.73;4.55;;;;;;;;;;5007744;28;20239;-21
2022/03/15 09:49:23;;;;;;;8.02;3.92;;;;;;;;;;5007038;28;20675;-20
2022/03/15 09:51:50;;;;;;;11.55;3.92;;;;;;;;;;5010475;28;20231;-21
2022/03/15 09:54:18;;;;;;;7.22;3.90;;;;;;;;;;5009115;28;20231;-20
2022/03/15 09:56:45;;;;;;;19.33;4.20;;;;;;;;;;5010404;28;20278;-20
2022/03/15 09:59:14;;;;;;;11.27;3.80;;;;;;;;;;5010153;28;20993;-20
2022/03/15 10:01:41;;;;;;;22.95;4.75;;;;;;;;;;5008325;28;20444;-18
2022/03/15 10:04:08;;;;;;;9.98;4.20;;;;;;;;;;5010440;28;20231;-18
2022/03/15 10:06:35;;;;;;;9.70;4.55;;;;;;;;;;5010321;28;20270;-17
2022/03/15 10:09:03;;;;;;;15.07;4.63;;;;;;;;;;5010250;28;20239;-18
2022/03/15 10:11:30;;;;;;;14.55;4.18;;;;;;;;;;5005398;28;20781;-18
2022/03/15 10:14:01;;;;;;;7.13;3.90;;;;;;;;;;5030382;28;20710;-18
2022/03/15 10:16:29;;;;;;;10.07;4.50;;;;;;;;;;5017400;28;20454;-18
2022/03/15 10:18:57;;;;;;;10.55;4.13;;;;;;;;;;5008870;28;20278;-18
2022/03/15 10:21:27;;;;;;;8.32;4.03;;;;;;;;;;5006315;28;20702;-17
2022/03/15 10:23:57;;;;;;;7.20;4.20;;;;;;;;;;4995597;28;20228;-18
2022/03/15 10:26:24;;;;;;;5.15;3.80;;;;;;;;;;5009660;28;20243;-18
2022/03/15 10:28:53;;;;;;;9.10;3.70;;;;;;;;;;5009016;28;21010;-18
2022/03/15 10:31:20;;;;;;;10.13;3.47;;;;;;;;;;5009915;28;20729;-18
2022/03/15 10:33:47;;;;;;;11.32;3.83;;;;;;;;;;5008151;28;20235;-17
2022/03/15 10:36:14;;;;;;;10.75;3.88;;;;;;;;;;5009572;28;20242;-18
2022/03/15 10:38:41;;;;;;;8.35;3.92;;;;;;;;;;5007762;28;20242;-18
2022/03/15 10:41:08;;;;;;;9.40;4.00;;;;;;;;;;5011103;28;20315;-20
2022/03/15 10:43:37;;;;;;;10.18;3.80;;;;;;;;;;5007363;28;20235;-20
2022/03/15 10:46:04;;;;;;;10.43;3.10;;;;;;;;;;5010264;28;21063;-18
2022/03/15 10:48:31;;;;;;;14.40;3.65;;;;;;;;;;5008874;28;20354;-18
2022/03/15 10:50:59;;;;;;;8.27;3.17;;;;;;;;;;5011111;28;20235;-20
2022/03/15 10:53:26;;;;;;;13.48;3.60;;;;;;;;;;5018580;28;20231;-18
2022/03/15 10:55:53;;;;;;;7.13;3.83;;;;;;;;;;5014365;28;20828;-21
2022/03/15 10:58:20;;;;;;;6.82;4.05;;;;;;;;;;5011464;28;20714;-19
2022/03/15 11:00:50;;;;;;;10.32;3.53;;;;;;;;;;5009505;28;21122;-20
2022/03/15 11:03:23;;;;;;;8.05;3.22;;;;;;;;;;5013360;28;20231;-18
2022/03/15 11:05:50;;;;;;;8.23;3.88;;;;;;;;;;5012261;28;20235;-19
2022/03/15 11:08:20;;;;;;;9.93;3.50;;;;;;;;;;5012766;28;20242;-18
2022/03/15 11:10:48;;;;;;;7.47;3.42;;;;;;;;;;5012034;28;20655;-18
2022/03/15 11:13:17;;;;;;;8.00;3.72;;;;;;;;;;5027877;28;20231;-18
2022/03/15 11:15:45;;;;;;;6.95;2.92;;;;;;;;;;5012428;28;20262;-17
2022/03/15 11:18:12;;;;;;;12.10;3.35;;;;;;;;;;5011979;28;20235;-18
2022/03/15 11:20:39;;;;;;;10.23;3.53;;;;;;;;;;5012853;28;20240;-17
2022/03/15 11:23:07;;;;;;;10.57;3.83;;;;;;;;;;5012554;28;20236;-18
2022/03/15 11:25:34;;;;;;;10.90;3.70;;;;;;;;;;5009336;28;20425;-21
2022/03/15 11:28:01;;;;;;;13.98;3.95;;;;;;;;;;4997333;28;20824;-20
2022/03/15 11:30:29;;;;;;;15.13;4.47;;;;;;;;;;5010811;28;20965;-20
2022/03/15 11:32:56;;;;;;;13.00;4.18;;;;;;;;;;5011924;28;20234;-17
2022/03/15 11:35:23;;;;;;;14.82;4.63;;;;;;;;;;5012099;28;20239;-18
2022/03/15 11:37:51;;;;;;;17.60;4.85;;;;;;;;;;5012330;28;20235;-17
2022/03/15 11:40:19;;;;;;;16.40;4.32;;;;;;;;;;5012366;28;20232;-18
2022/03/15 11:42:45;;;;;;;11.77;4.43;;;;;;;;;;5012129;28;20231;-19
2022/03/15 11:45:13;;;;;;;9.98;3.75;;;;;;;;;;5011899;28;20236;-18
2022/03/15 11:47:59;;;;;;;10.27;3.53;;;;;;;;;;5012773;28;20988;-18
2022/03/15 11:50:26;;;;;;;6.15;3.38;;;;;;;;;;5012085;28;20242;-18
2022/03/15 11:52:53;;;;;;;9.45;3.95;;;;;;;;;;5012945;28;20231;-19
2022/03/15 11:55:20;;;;;;;5.75;3.72;;;;;;;;;;5012439;28;20241;-18
2022/03/15 11:57:49;;;;;;;6.47;3.13;;;;;;;;;;5030822;28;20230;-20
2022/03/15 12:00:16;;;;;;;9.23;3.92;;;;;;;;;;5045735;28;20262;-21
2022/03/15 12:02:44;;;;;;;7.20;3.40;;;;;;;;;;5012203;28;20231;-21
2022/03/15 12:05:11;;;;;;;7.15;3.45;;;;;;;;;;5006486;28;20284;-21
2022/03/15 12:07:47;;;;;;;8.30;3.78;;;;;;;;;;5008313;28;20995;-21
2022/03/15 12:10:14;;;;;;;17.15;3.92;;;;;;;;;;5011607;28;20500;-21
2022/03/15 12:12:42;;;;;;;15.18;4.00;;;;;;;;;;5011313;28;20446;-21
2022/03/15 12:15:10;;;;;;;8.35;3.38;;;;;;;;;;5011786;28;20265;-21
2022/03/15 12:17:37;;;;;;;14.25;3.45;;;;;;;;;;5009803;28;20238;-17
2022/03/15 12:20:06;;;;;;;10.13;3.45;;;;;;;;;;5011885;28;20456;-20
2022/03/15 12:22:37;;;;;;;9.73;3.45;;;;;;;;;;5010062;28;20366;-17
2022/03/15 12:25:04;;;;;;;21.30;3.47;;;;;;;;;;5007448;28;20290;-18
2022/03/15 12:27:51;;;;;;;4.78;2.67;;;;;;;;;;5010416;28;20757;-18
2022/03/15 12:30:18;;;;;;;7.60;2.70;;;;;;;;;;5004018;28;21014;-18
2022/03/15 12:32:45;;;;;;;6.20;2.92;;;;;;;;;;5011536;28;20243;-18
2022/03/15 12:35:13;;;;;;;8.32;3.05;;;;;;;;;;5008084;28;20235;-20
2022/03/15 12:37:40;;;;;;;5.55;2.90;;;;;;;;;;5011499;28;20231;-18
2022/03/15 12:40:07;;;;;;;4.40;2.67;;;;;;;;;;5011258;28;21231;-21
2022/03/15 12:42:34;;;;;;;4.97;2.80;;;;;;;;;;5005024;28;20239;-21
2022/03/15 12:45:01;;;;;;;10.65;3.13;;;;;;;;;;5003902;28;20239;-20
2022/03/15 12:47:28;;;;;;;6.13;3.35;;;;;;;;;;5005564;28;21581;-20
2022/03/15 12:49:55;;;;;;;6.88;2.70;;;;;;;;;;5007932;28;20235;-21
2022/03/15 12:52:24;;;;;;;7.45;2.72;;;;;;;;;;5004866;28;21129;-20
2022/03/15 12:54:51;;;;;;;6.18;2.58;;;;;;;;;;5007349;28;20239;-20
2022/03/15 12:57:18;;;;;;;6.72;3.22;;;;;;;;;;5006149;28;20240;-21
2022/03/15 12:59:45;;;;;;;5.20;2.67;;;;;;;;;;5007317;28;20739;-20
2022/03/15 13:02:12;;;;;;;6.22;3.03;;;;;;;;;;5007367;28;20722;-20
2022/03/15 13:04:39;;;;;;;4.18;2.70;;;;;;;;;;5005962;28;20232;-20
2022/03/15 13:07:06;;;;;;;5.32;2.70;;;;;;;;;;5008221;28;20250;-20
2022/03/15 13:09:34;;;;;;;5.35;2.38;;;;;;;;;;5005000;28;20711;-17
2022/03/15 13:12:02;;;;;;;6.05;2.53;;;;;;;;;;5008052;28;20235;-20
2022/03/15 13:14:30;;;;;;;5.30;2.60;;;;;;;;;;5007162;28;20882;-20
2022/03/15 13:17:05;;;;;;;4.65;2.40;;;;;;;;;;5005667;28;20231;-21
2022/03/15 13:19:32;;;;;;;4.45;2.67;;;;;;;;;;5005917;28;20235;-20
2022/03/15 13:22:00;;;;;;;4.72;2.50;;;;;;;;;;5007908;28;20243;-21
2022/03/15 13:24:27;;;;;;;5.68;2.50;;;;;;;;;;5001859;28;20437;-20
2022/03/15 13:26:55;;;;;;;3.33;2.33;;;;;;;;;;5007854;28;20243;-20
2022/03/15 13:29:24;;;;;;;5.95;3.10;;;;;;;;;;5007249;28;20433;-20
2022/03/15 13:31:51;;;;;;;6.82;3.55;;;;;;;;;;5008138;28;20727;-20
2022/03/15 13:34:18;;;;;;;11.27;3.00;;;;;;;;;;5003581;28;20243;-21
2022/03/15 13:36:45;;;;;;;11.23;3.65;;;;;;;;;;5002456;28;20445;-20
2022/03/15 13:39:12;;;;;;;10.52;3.83;;;;;;;;;;5007118;28;20246;-20
2022/03/15 13:41:42;;;;;;;10.95;3.67;;;;;;;;;;5005745;28;20238;-20
2022/03/15 13:44:09;;;;;;;10.25;3.05;;;;;;;;;;5006480;28;21034;-21
2022/03/15 13:46:36;;;;;;;7.00;3.03;;;;;;;;;;5004609;28;20243;-20
2022/03/15 13:49:04;;;;;;;8.23;3.28;;;;;;;;;;5007471;28;20231;-21
2022/03/15 13:51:32;;;;;;;9.82;2.97;;;;;;;;;;5006137;28;20250;-20
2022/03/15 13:53:59;;;;;;;10.97;3.27;;;;;;;;;;5001294;28;20424;-22
2022/03/15 13:56:26;;;;;;;7.53;3.13;;;;;;;;;;5004097;28;20896;-24
2022/03/15 13:58:59;;;;;;;16.85;4.15;;;;;;;;;;5007656;28;20266;-22
2022/03/15 14:01:26;;;;;;;15.75;3.53;;;;;;;;;;5001121;28;20228;-23
2022/03/15 14:03:53;;;;;;;41.67;4.53;;;;;;;;;;5004797;28;20269;-23
2022/03/15 14:06:22;;;;;;;55.80;5.40;;;;;;;;;;5005363;28;20422;-24
2022/03/15 14:08:49;;;;;;;31.95;4.68;;;;;;;;;;5005274;28;20236;-23
2022/03/15 14:11:16;;;;;;;36.97;4.80;;;;;;;;;;5005091;28;20418;-23
2022/03/15 14:13:43;;;;;;;25.20;3.55;;;;;;;;;;5004245;28;20235;-23
2022/03/15 14:16:12;;;;;;;16.67;3.20;;;;;;;;;;5010722;28;20702;-19
2022/03/15 14:18:39;;;;;;;21.33;3.67;;;;;;;;;;5009159;28;20255;-19
2022/03/15 14:21:06;;;;;;;30.08;3.60;;;;;;;;;;5010804;28;20842;-19
2022/03/15 14:23:34;;;;;;;19.35;3.63;;;;;;;;;;5008233;28;20247;-19
2022/03/15 14:26:03;;;;;;;17.55;3.40;;;;;;;;;;5008862;28;20422;-19
2022/03/15 14:28:30;;;;;;;20.42;4.03;;;;;;;;;;5007101;28;20450;-19
2022/03/15 14:30:57;;;;;;;20.45;3.83;;;;;;;;;;5001919;28;20429;-18
2022/03/15 14:33:24;;;;;;;8.43;3.30;;;;;;;;;;5008547;28;20707;-17
2022/03/15 14:35:51;;;;;;;16.42;3.75;;;;;;;;;;5006393;28;20444;-18
2022/03/15 14:38:18;;;;;;;15.25;4.05;;;;;;;;;;5010108;28;21046;-16
2022/03/15 14:40:45;;;;;;;6.85;3.15;;;;;;;;;;5009830;28;20235;-16
2022/03/15 14:43:13;;;;;;;7.53;2.90;;;;;;;;;;5012032;28;20247;-16